Time;durP1;ratioP1;P1;durP2;ratioP2;P2;SDS_P1;SDS_P2;PMS_P1;PMS_P2;Temp;Humidity;BMP_temperature;BMP_pressure;BME280_temperature;BME280_humidity;BME280_pressure;Samples;Min_cycle;Max_cycle;Signal;HPM_P1;HPM_P2
2021/05/30 00:00:09;;;;;;;4.22;2.50;;;;;;;13.57;54.58;100661.88;2194546;40;20051;-81
2021/05/30 00:01:41;;;;;;;5.50;1.75;;;;;;;13.52;54.60;100659.66;2190272;40;20035;-82
2021/05/30 00:03:12;;;;;;;4.00;1.90;;;;;;;13.52;54.67;100656.97;2190491;40;20047;-82
2021/05/30 00:04:44;;;;;;;4.90;1.98;;;;;;;13.53;54.66;100664.03;2196463;40;20048;-82
2021/05/30 00:06:16;;;;;;;4.75;2.25;;;;;;;13.46;54.70;100654.88;2188877;40;20031;-82
2021/05/30 00:07:48;;;;;;;5.25;2.20;;;;;;;13.43;54.78;100657.84;2194434;40;20036;-82
2021/05/30 00:09:21;;;;;;;4.43;1.98;;;;;;;13.49;54.57;100656.41;2194194;40;20047;-82
2021/05/30 00:10:52;;;;;;;3.63;2.03;;;;;;;13.51;54.54;100655.25;2195504;40;20087;-81
2021/05/30 00:12:24;;;;;;;4.03;2.28;;;;;;;13.51;54.48;100655.25;2194502;40;20098;-82
2021/05/30 00:13:56;;;;;;;6.03;2.33;;;;;;;13.47;54.59;100664.63;2193066;40;20043;-81
2021/05/30 00:15:27;;;;;;;4.70;2.13;;;;;;;13.46;54.68;100659.41;2193896;40;20072;-81
2021/05/30 00:16:58;;;;;;;5.45;3.30;;;;;;;13.41;54.72;100666.06;2195796;40;20603;-82
2021/05/30 00:18:31;;;;;;;4.78;2.40;;;;;;;13.37;54.90;100656.56;2189287;40;20325;-82
2021/05/30 00:20:04;;;;;;;5.07;2.47;;;;;;;13.30;55.10;100665.38;2191310;40;20035;-82
2021/05/30 00:21:37;;;;;;;4.10;2.03;;;;;;;13.26;55.20;100654.09;2160100;40;21583;-81
2021/05/30 00:23:09;;;;;;;4.70;2.35;;;;;;;13.25;55.16;100650.56;2177194;41;20037;-81
2021/05/30 00:24:41;;;;;;;5.07;2.63;;;;;;;13.23;55.21;100654.38;2166681;40;20052;-81
2021/05/30 00:26:13;;;;;;;4.35;2.25;;;;;;;13.19;55.30;100655.66;2183657;41;20036;-82
2021/05/30 00:27:44;;;;;;;4.38;1.92;;;;;;;13.18;55.27;100653.97;2174720;40;20103;-81
2021/05/30 00:29:16;;;;;;;6.28;1.88;;;;;;;13.23;55.16;100655.22;2189724;40;20042;-81
2021/05/30 00:30:47;;;;;;;4.30;2.15;;;;;;;13.21;55.13;100651.00;2189405;40;20059;-82
2021/05/30 00:32:18;;;;;;;4.50;2.05;;;;;;;13.21;55.13;100654.53;2194552;40;20118;-81
2021/05/30 00:33:50;;;;;;;4.15;2.30;;;;;;;13.19;55.09;100655.66;2194015;40;20050;-81
2021/05/30 00:35:21;;;;;;;6.70;3.50;;;;;;;13.09;55.24;100661.91;2194116;40;20031;-81
2021/05/30 00:36:53;;;;;;;4.95;2.67;;;;;;;13.00;55.64;100661.94;2192496;40;20149;-81
2021/05/30 00:38:25;;;;;;;4.78;2.03;;;;;;;13.00;55.68;100661.94;2187574;40;20027;-81
2021/05/30 00:39:55;;;;;;;4.45;2.50;;;;;;;12.95;55.92;100668.59;2187686;40;20549;-80
2021/05/30 00:41:27;;;;;;;5.05;2.72;;;;;;;12.95;55.95;100673.94;2190042;40;20044;-82
2021/05/30 00:42:58;;;;;;;4.78;2.40;;;;;;;12.95;55.91;100657.84;2188128;40;20035;-81
2021/05/30 00:44:31;;;;;;;4.05;2.00;;;;;;;12.97;55.90;100667.59;2191296;40;20055;-81
2021/05/30 00:46:02;;;;;;;4.60;2.63;;;;;;;12.96;56.09;100672.13;2193906;40;20519;-81
2021/05/30 00:47:34;;;;;;;6.15;2.08;;;;;;;12.95;55.97;100673.94;2192415;40;20028;-81
2021/05/30 00:49:05;;;;;;;5.70;2.30;;;;;;;12.91;55.98;100663.66;2188254;40;20036;-81
2021/05/30 00:50:37;;;;;;;4.93;2.17;;;;;;;12.90;55.97;100668.19;2188421;40;20518;-81
2021/05/30 00:52:08;;;;;;;4.55;2.10;;;;;;;12.90;56.20;100673.56;2194390;40;20066;-81
2021/05/30 00:53:40;;;;;;;4.40;2.15;;;;;;;12.90;56.00;100668.19;2193081;40;20035;-81
2021/05/30 00:55:12;;;;;;;4.00;2.30;;;;;;;12.89;56.12;100671.84;2193217;40;20058;-81
2021/05/30 00:56:44;;;;;;;5.22;2.45;;;;;;;12.87;56.20;100664.94;2190939;40;20039;-80
2021/05/30 00:58:15;;;;;;;5.47;2.00;;;;;;;12.90;55.92;100662.81;2190800;40;20032;-81
2021/05/30 00:59:46;;;;;;;5.93;2.67;;;;;;;12.95;55.78;100662.38;2165504;40;20055;-81
2021/05/30 01:01:17;;;;;;;3.95;2.03;;;;;;;12.99;55.43;100665.63;2185766;40;20024;-81
2021/05/30 01:02:48;;;;;;;5.88;2.35;;;;;;;12.98;55.67;100675.53;2180795;40;20052;-81
2021/05/30 01:04:20;;;;;;;4.55;2.38;;;;;;;12.99;55.75;100669.13;2169845;41;20408;-82
2021/05/30 01:05:52;;;;;;;4.85;2.22;;;;;;;13.01;55.60;100666.31;2185696;40;20546;-81
2021/05/30 01:07:25;;;;;;;4.18;2.22;;;;;;;13.01;55.66;100674.38;2193554;40;20042;-81
2021/05/30 01:08:58;;;;;;;3.83;2.17;;;;;;;12.99;55.58;100674.50;2192816;40;20051;-81
2021/05/30 01:10:33;;;;;;;3.97;2.20;;;;;;;12.98;55.81;100669.28;2193976;40;20391;-81
2021/05/30 01:12:08;;;;;;;6.13;2.72;;;;;;;12.94;55.88;100674.94;2171454;40;20075;-82
2021/05/30 01:13:38;;;;;;;8.35;3.50;;;;;;;12.92;56.13;100666.22;2188620;40;20040;-81
2021/05/30 01:15:11;;;;;;;4.80;2.53;;;;;;;12.90;56.09;100662.81;2192287;40;20043;-81
2021/05/30 01:16:43;;;;;;;3.72;1.92;;;;;;;12.89;56.21;100665.66;2194987;40;20043;-82
2021/05/30 01:18:15;;;;;;;4.47;2.30;;;;;;;12.86;56.10;100666.78;2192342;40;20058;-81
2021/05/30 01:19:51;;;;;;;4.30;2.00;;;;;;;12.85;56.05;100673.13;2193754;40;20144;-81
2021/05/30 01:21:22;;;;;;;5.03;2.00;;;;;;;12.80;56.21;100668.19;2181893;40;20827;-81
2021/05/30 01:22:55;;;;;;;4.47;2.33;;;;;;;12.77;56.37;100667.63;2188356;40;20036;-81
2021/05/30 01:24:27;;;;;;;4.72;1.90;;;;;;;12.74;56.25;100671.47;2184634;40;20047;-80
2021/05/30 01:25:59;;;;;;;4.80;2.25;;;;;;;12.72;56.30;100667.22;2193474;40;20027;-82
2021/05/30 01:27:30;;;;;;;4.60;2.70;;;;;;;12.72;56.44;100670.75;2190927;40;20051;-80
2021/05/30 01:29:01;;;;;;;6.93;2.90;;;;;;;12.66;56.33;100665.97;2193989;40;20043;-81
2021/05/30 01:30:33;;;;;;;4.93;2.70;;;;;;;12.67;56.36;100675.72;2185106;40;20467;-81
2021/05/30 01:32:06;;;;;;;4.82;2.22;;;;;;;12.69;56.29;100675.56;2191124;40;20040;-81
2021/05/30 01:33:37;;;;;;;5.50;2.60;;;;;;;12.61;56.42;100674.44;2192746;40;20553;-81
2021/05/30 01:35:10;;;;;;;6.22;2.55;;;;;;;12.60;56.67;100677.28;2192792;40;20051;-80
2021/05/30 01:36:41;;;;;;;5.32;2.70;;;;;;;12.56;56.90;100665.13;2191726;40;20312;-80
2021/05/30 01:38:13;;;;;;;4.13;2.40;;;;;;;12.50;56.98;100671.91;2192858;40;20042;-81
2021/05/30 01:39:44;;;;;;;5.18;2.88;;;;;;;12.48;57.07;100687.28;2190719;40;20066;-80
2021/05/30 01:41:16;;;;;;;4.38;2.47;;;;;;;12.43;57.17;100685.03;2193075;40;20027;-81
2021/05/30 01:42:49;;;;;;;3.75;2.00;;;;;;;12.39;57.27;100680.09;2192240;40;20094;-81
2021/05/30 01:44:20;;;;;;;4.43;2.30;;;;;;;12.38;57.36;100681.06;2192584;40;20032;-81
2021/05/30 01:45:52;;;;;;;5.80;2.63;;;;;;;12.40;57.10;100681.78;2191384;40;20043;-81
2021/05/30 01:47:22;;;;;;;5.60;3.00;;;;;;;12.38;57.20;100684.63;2192598;40;20588;-81
2021/05/30 01:48:56;;;;;;;4.68;2.50;;;;;;;12.37;57.36;100690.13;2190516;40;20047;-81
2021/05/30 01:50:29;;;;;;;4.38;2.30;;;;;;;12.30;57.51;100682.63;2192047;40;20031;-81
2021/05/30 01:52:00;;;;;;;5.53;2.50;;;;;;;12.28;57.57;100689.13;2192467;40;20067;-81
2021/05/30 01:53:48;;;;;;;4.55;2.30;;;;;;;12.27;57.68;100692.78;2193307;40;20096;-81
2021/05/30 01:55:29;;;;;;;5.55;2.35;;;;;;;12.28;57.58;100687.28;2190899;40;20032;-81
2021/05/30 01:57:08;;;;;;;4.55;2.30;;;;;;;12.28;57.48;100694.50;2190966;40;20413;-80
2021/05/30 01:58:43;;;;;;;4.65;2.50;;;;;;;12.29;57.44;100685.47;2193189;40;20023;-81
2021/05/30 02:00:16;;;;;;;4.95;2.30;;;;;;;12.30;57.34;100687.16;2189440;40;20363;-81
2021/05/30 02:01:49;;;;;;;6.57;2.92;;;;;;;12.29;57.62;100691.66;2192518;40;20028;-80
2021/05/30 02:03:22;;;;;;;4.95;2.47;;;;;;;12.30;57.42;100693.34;2187608;40;20054;-81
2021/05/30 02:04:54;;;;;;;4.93;2.30;;;;;;;12.29;57.36;100686.28;2192848;40;20439;-80
2021/05/30 02:06:27;;;;;;;5.50;3.00;;;;;;;12.25;57.42;100689.41;2190862;40;20360;-81
2021/05/30 02:08:00;;;;;;;4.70;2.78;;;;;;;12.17;57.65;100693.63;2191566;40;20421;-81
2021/05/30 02:09:31;;;;;;;4.80;2.72;;;;;;;12.15;57.74;100695.59;2157813;40;20063;-80
2021/05/30 02:11:08;;;;;;;4.32;2.58;;;;;;;12.20;57.63;100694.34;2187369;40;20092;-80
2021/05/30 02:12:39;;;;;;;6.15;2.88;;;;;;;12.20;57.56;100687.13;2188157;40;20077;-80
2021/05/30 02:14:13;;;;;;;6.47;2.78;;;;;;;12.21;57.70;100696.03;2188146;40;20039;-80
2021/05/30 02:15:46;;;;;;;4.65;2.95;;;;;;;12.14;57.61;100691.22;2188258;40;20603;-80
2021/05/30 02:17:19;;;;;;;5.28;3.13;;;;;;;12.06;58.18;100691.06;2191594;40;20036;-80
2021/05/30 02:18:50;;;;;;;4.40;2.60;;;;;;;12.00;58.18;100695.16;2188414;40;20050;-80
2021/05/30 02:20:32;;;;;;;3.83;1.98;;;;;;;12.00;58.29;100689.78;2187279;40;20040;-81
2021/05/30 02:22:04;;;;;;;8.27;2.95;;;;;;;12.01;58.33;100685.28;2127915;41;20147;-81
2021/05/30 02:23:35;;;;;;;4.85;2.83;;;;;;;12.00;58.31;100694.31;2163455;40;20050;-81
2021/05/30 02:25:09;;;;;;;4.18;2.30;;;;;;;12.00;58.35;100688.97;2193583;40;20034;-81
2021/05/30 02:26:43;;;;;;;7.25;2.90;;;;;;;12.00;58.34;100691.63;2193849;40;20055;-82
2021/05/30 02:28:14;;;;;;;4.95;2.78;;;;;;;12.01;58.34;100693.34;2186394;40;20391;-81
2021/05/30 02:29:46;;;;;;;9.35;3.22;;;;;;;12.01;58.00;100704.88;2159962;40;20117;-81
2021/05/30 02:31:18;;;;;;;6.57;3.20;;;;;;;11.98;58.23;100699.81;2186030;40;20059;-81
2021/05/30 02:32:49;;;;;;;5.82;3.78;;;;;;;11.90;58.65;100702.31;2192145;40;20628;-80
2021/05/30 02:34:21;;;;;;;4.55;2.80;;;;;;;11.83;58.78;100702.00;2192377;40;20058;-81
2021/05/30 02:35:53;;;;;;;6.68;3.28;;;;;;;11.81;59.04;100703.09;2190355;40;20138;-80
2021/05/30 02:37:24;;;;;;;5.65;2.75;;;;;;;11.77;59.26;100702.53;2190549;40;20049;-80
2021/05/30 02:38:56;;;;;;;5.82;3.17;;;;;;;11.75;59.16;100709.03;2144670;40;20026;-79
2021/05/30 02:40:27;;;;;;;6.85;2.67;;;;;;;11.75;59.48;100709.03;2183146;40;20457;-80
2021/05/30 02:42:00;;;;;;;8.73;3.45;;;;;;;11.74;59.38;100707.31;2162867;40;21675;-80
2021/05/30 02:43:31;;;;;;;6.05;2.80;;;;;;;11.73;59.51;100710.97;2190837;40;20062;-81
2021/05/30 02:45:04;;;;;;;6.55;2.90;;;;;;;11.73;59.64;100706.50;2179097;41;20408;-80
2021/05/30 02:46:41;;;;;;;7.05;2.70;;;;;;;11.68;59.78;100708.72;2193169;40;20050;-81
2021/05/30 02:48:12;;;;;;;6.53;3.50;;;;;;;11.68;59.67;100709.56;2192669;40;20498;-81
2021/05/30 02:49:44;;;;;;;4.57;2.88;;;;;;;11.67;59.61;100697.16;2193100;40;20126;-81
2021/05/30 02:51:15;;;;;;;4.55;2.30;;;;;;;11.74;59.50;100694.81;2191342;40;20074;-80
2021/05/30 02:52:46;;;;;;;6.60;3.45;;;;;;;11.74;59.35;100704.66;2193040;40;20055;-80
2021/05/30 02:54:18;;;;;;;7.10;3.10;;;;;;;11.68;59.72;100704.22;2189202;40;20035;-80
2021/05/30 02:55:49;;;;;;;6.18;3.40;;;;;;;11.63;60.01;100703.75;2190972;40;20043;-80
2021/05/30 02:57:21;;;;;;;6.00;3.13;;;;;;;11.53;60.35;100701.06;2189364;40;20046;-80
2021/05/30 02:58:52;;;;;;;5.38;3.47;;;;;;;11.46;60.63;100710.63;2192812;40;20042;-80
2021/05/30 03:00:24;;;;;;;5.68;3.22;;;;;;;11.43;60.84;100700.19;2190907;40;20110;-80
2021/05/30 03:01:55;;;;;;;9.30;3.75;;;;;;;11.42;60.87;100711.88;2192197;40;20058;-80
2021/05/30 03:11:06;;;;;;;11.20;3.55;;;;;;;11.41;60.60;100720.03;2150833;41;20065;-81
2021/05/30 03:15:13;;;;;;;6.13;3.60;;;;;;;11.41;60.77;100717.38;2127308;41;20043;-81
2021/05/30 03:16:53;;;;;;;8.02;3.53;;;;;;;11.33;61.10;100721.56;2156787;41;20480;-81
2021/05/30 03:19:06;;;;;;;5.10;3.30;;;;;;;11.27;61.24;100714.03;2157904;40;20124;-81
2021/05/30 03:21:07;;;;;;;5.53;3.47;;;;;;;11.27;61.43;100718.56;2147320;40;20584;-81
2021/05/30 03:22:39;;;;;;;5.45;2.60;;;;;;;11.32;61.20;100724.34;2165269;40;20034;-81
2021/05/30 03:24:44;;;;;;;5.78;3.42;;;;;;;11.32;61.42;100727.91;2173126;40;20040;-81
2021/05/30 03:26:42;;;;;;;5.05;2.70;;;;;;;11.26;61.54;100720.38;2187885;40;20043;-81
2021/05/30 03:28:37;;;;;;;6.00;3.67;;;;;;;11.23;61.56;100726.00;2144734;41;20041;-82
2021/05/30 03:32:41;;;;;;;5.88;2.92;;;;;;;11.20;61.56;100727.09;2171262;41;20049;-81
2021/05/30 03:34:20;;;;;;;6.95;4.05;;;;;;;11.14;61.63;100732.16;2156865;41;20040;-81
2021/05/30 03:36:00;;;;;;;5.55;3.50;;;;;;;11.10;61.83;100728.88;2154200;40;20437;-81
2021/05/30 03:37:33;;;;;;;5.70;3.70;;;;;;;11.04;62.07;100737.44;2170080;41;20327;-80
2021/05/30 03:39:06;;;;;;;6.40;3.50;;;;;;;10.97;62.10;100731.75;2180639;40;20039;-81
2021/05/30 03:40:45;;;;;;;5.43;3.00;;;;;;;10.99;62.29;100735.16;2188116;40;20508;-81
2021/05/30 03:42:23;;;;;;;6.93;2.97;;;;;;;11.02;62.05;100734.03;2182296;40;20047;-81
2021/05/30 03:43:54;;;;;;;5.40;3.42;;;;;;;11.05;62.01;100737.28;2186124;40;20036;-81
2021/05/30 03:45:42;;;;;;;6.22;3.38;;;;;;;11.02;62.11;100734.91;2181626;40;20054;-81
2021/05/30 03:47:21;;;;;;;7.07;2.92;;;;;;;11.06;62.01;100736.31;2182775;40;20382;-82
2021/05/30 03:49:07;;;;;;;6.35;3.35;;;;;;;11.06;62.17;100728.28;2164232;40;20078;-81
2021/05/30 03:50:49;;;;;;;6.10;3.05;;;;;;;11.07;62.14;100735.34;2167836;40;20032;-81
2021/05/30 03:52:23;;;;;;;5.78;3.33;;;;;;;11.12;61.98;100734.09;2173897;41;20052;-80
2021/05/30 03:54:02;;;;;;;5.72;3.35;;;;;;;11.10;62.05;100726.19;2157256;40;20048;-80
2021/05/30 03:55:36;;;;;;;8.25;3.78;;;;;;;11.04;62.31;100735.63;2168792;41;20491;-80
2021/05/30 03:57:09;;;;;;;6.35;3.33;;;;;;;11.04;62.19;100740.09;2173036;41;20131;-80
2021/05/30 03:58:44;;;;;;;7.28;3.47;;;;;;;11.06;62.26;100738.16;2167718;41;20045;-81
2021/05/30 04:00:18;;;;;;;6.10;3.70;;;;;;;11.03;62.36;100738.41;2172986;41;20061;-80
2021/05/30 04:01:49;;;;;;;7.60;3.38;;;;;;;10.99;62.32;100740.50;2178869;41;20032;-79
2021/05/30 04:03:20;;;;;;;9.35;3.90;;;;;;;10.92;62.65;100733.97;2182170;40;20134;-81
2021/05/30 04:05:00;;;;;;;6.35;3.42;;;;;;;10.81;62.85;100736.72;2186946;40;20048;-80
2021/05/30 04:06:31;;;;;;;10.98;4.03;;;;;;;10.83;62.87;100740.09;2184010;40;20031;-81
2021/05/30 04:08:03;;;;;;;7.40;3.92;;;;;;;10.77;63.32;100744.97;2185807;40;20047;-80
2021/05/30 04:09:34;;;;;;;6.22;3.83;;;;;;;10.80;63.28;100751.06;2183744;40;20048;-80
2021/05/30 04:11:06;;;;;;;7.32;4.05;;;;;;;10.82;63.19;100749.94;2183639;40;20091;-79
2021/05/30 04:12:37;;;;;;;7.93;3.47;;;;;;;10.84;63.21;100742.66;2184209;40;20040;-80
2021/05/30 04:14:08;;;;;;;7.20;3.70;;;;;;;10.90;63.04;100741.28;2172529;41;20044;-79
2021/05/30 04:15:40;;;;;;;6.40;3.70;;;;;;;10.92;62.87;100745.50;2179328;40;20142;-81
2021/05/30 04:17:11;;;;;;;5.38;3.38;;;;;;;11.00;62.64;100750.22;2184452;40;20043;-79
2021/05/30 04:18:42;;;;;;;4.85;2.97;;;;;;;11.08;62.72;100744.22;2174656;40;20055;-79
2021/05/30 04:20:17;;;;;;;6.00;3.65;;;;;;;11.13;62.42;100746.50;2181068;40;20032;-79
2021/05/30 04:21:48;;;;;;;6.03;3.42;;;;;;;11.15;62.31;100742.72;2182494;40;20040;-81
2021/05/30 04:23:19;;;;;;;5.82;3.22;;;;;;;11.18;62.30;100738.94;2183207;40;20037;-81
2021/05/30 04:24:51;;;;;;;6.35;3.60;;;;;;;11.17;62.35;100739.91;2184270;40;20047;-81
2021/05/30 04:26:28;;;;;;;8.00;3.83;;;;;;;11.13;62.19;100747.34;2190019;40;20044;-81
2021/05/30 04:28:01;;;;;;;4.88;2.83;;;;;;;11.14;62.17;100745.53;2188441;40;20046;-80
2021/05/30 04:29:48;;;;;;;5.90;3.17;;;;;;;11.14;62.32;100742.88;2188444;40;20031;-82
2021/05/30 04:31:20;;;;;;;7.70;4.00;;;;;;;11.12;62.25;100731.44;2184395;40;20297;-82
2021/05/30 04:32:52;;;;;;;8.77;4.18;;;;;;;11.13;62.24;100735.81;2180407;40;20076;-82
2021/05/30 04:34:29;;;;;;;5.38;3.35;;;;;;;11.16;62.12;100748.91;2184065;41;20476;-83
2021/05/30 04:36:01;;;;;;;5.07;3.20;;;;;;;11.18;62.20;100742.47;2181224;40;20052;-83
2021/05/30 04:39:37;;;;;;;5.40;3.33;;;;;;;11.27;61.98;100750.69;2164280;40;20060;-81
2021/05/30 04:41:13;;;;;;;7.10;3.55;;;;;;;11.26;62.03;100746.31;2186301;40;20332;-81
2021/05/30 04:42:44;;;;;;;6.00;3.80;;;;;;;11.30;61.87;100748.59;2172405;40;20084;-80
2021/05/30 04:44:16;;;;;;;5.55;3.17;;;;;;;11.32;62.10;100746.63;2186647;40;20452;-81
2021/05/30 04:45:56;;;;;;;4.80;2.80;;;;;;;11.40;61.79;100743.25;2186477;40;20391;-82
2021/05/30 04:47:27;;;;;;;5.20;3.55;;;;;;;11.43;61.59;100743.00;2180580;40;20047;-79
2021/05/30 04:48:58;;;;;;;5.63;3.40;;;;;;;11.48;61.60;100739.94;2183239;40;21946;-80
2021/05/30 04:50:30;;;;;;;5.88;4.13;;;;;;;11.47;61.58;100743.59;2179514;40;20032;-80
2021/05/30 04:52:04;;;;;;;5.50;3.13;;;;;;;11.46;61.56;100752.59;2171972;41;20034;-81
2021/05/30 04:53:39;;;;;;;5.82;3.13;;;;;;;11.52;61.59;100749.41;2167156;40;20044;-81
2021/05/30 04:55:18;;;;;;;7.43;3.10;;;;;;;11.52;61.52;100736.84;2169521;41;20038;-81
2021/05/30 04:58:39;;;;;;;5.25;2.80;;;;;;;11.65;61.27;100741.97;2182310;41;20091;-81
2021/05/30 05:00:13;;;;;;;6.38;4.03;;;;;;;11.61;61.24;100735.22;2175471;40;20067;-82
2021/05/30 05:02:12;;;;;;;5.20;3.03;;;;;;;11.58;61.40;100740.81;2183632;41;20038;-81
2021/05/30 05:03:46;;;;;;;6.05;3.80;;;;;;;11.61;61.38;100735.22;2139670;40;20046;-80
2021/05/30 05:05:20;;;;;;;6.25;3.75;;;;;;;11.71;61.09;100735.22;2181323;40;20044;-80
2021/05/30 05:06:54;;;;;;;5.75;3.58;;;;;;;11.79;60.90;100737.25;2148248;40;20172;-81
2021/05/30 05:08:53;;;;;;;8.10;3.85;;;;;;;11.80;60.77;100733.59;2176048;40;20079;-82
2021/05/30 05:10:24;;;;;;;7.13;3.40;;;;;;;11.88;60.82;100732.88;2181931;40;20044;-81
2021/05/30 05:11:59;;;;;;;6.13;3.53;;;;;;;11.90;60.80;100736.28;2185178;40;20483;-81
2021/05/30 05:15:55;;;;;;;5.97;3.78;;;;;;;11.97;60.53;100734.75;2174309;40;20048;-80
2021/05/30 05:17:26;;;;;;;6.80;3.80;;;;;;;11.89;60.77;100731.91;2188495;40;20035;-80
2021/05/30 05:19:31;;;;;;;6.53;3.67;;;;;;;11.92;60.83;100729.78;2172888;40;20032;-83
2021/05/30 05:21:05;;;;;;;6.53;4.50;;;;;;;11.92;60.83;100727.13;2175244;40;20049;-83
2021/05/30 05:23:13;;;;;;;5.82;3.67;;;;;;;11.87;60.93;100729.38;2179197;40;20036;-81
2021/05/30 05:24:58;;;;;;;6.57;4.03;;;;;;;11.97;60.69;100732.97;2165815;40;20037;-82
2021/05/30 05:31:51;;;;;;;7.07;4.43;;;;;;;12.17;60.35;100730.31;2186146;40;20066;-78
2021/05/30 05:33:25;;;;;;;7.53;4.00;;;;;;;12.17;60.26;100727.66;2163280;40;20063;-78
2021/05/30 05:34:56;;;;;;;9.05;4.68;;;;;;;12.14;60.51;100728.75;2184461;40;20035;-79
2021/05/30 05:36:27;;;;;;;6.75;4.20;;;;;;;12.12;60.58;100736.09;2179883;40;20056;-78
2021/05/30 05:37:59;;;;;;;6.00;3.40;;;;;;;12.19;60.36;100733.69;2176967;40;20043;-78
2021/05/30 05:39:31;;;;;;;6.57;3.63;;;;;;;12.32;60.23;100738.81;2164135;40;20040;-78
2021/05/30 05:41:03;;;;;;;6.18;4.10;;;;;;;12.43;60.15;100725.25;2186436;40;20695;-77
2021/05/30 05:42:35;;;;;;;5.57;3.30;;;;;;;12.52;59.63;100725.38;2178908;40;20037;-79
2021/05/30 05:44:06;;;;;;;6.32;4.10;;;;;;;12.54;59.36;100732.34;2178801;41;20028;-78
2021/05/30 05:45:38;;;;;;;7.53;4.40;;;;;;;12.42;59.71;100730.75;2177869;40;20044;-78
2021/05/30 05:47:10;;;;;;;8.15;4.65;;;;;;;12.41;59.80;100729.06;2179504;40;20036;-78
2021/05/30 05:48:41;;;;;;;7.25;3.83;;;;;;;12.40;59.94;100730.06;2175799;40;20369;-80
2021/05/30 05:50:14;;;;;;;6.38;4.60;;;;;;;12.43;59.89;100727.09;2184363;40;20024;-78
2021/05/30 05:51:45;;;;;;;8.88;4.72;;;;;;;12.46;59.89;100729.50;2181301;40;20036;-80
2021/05/30 05:53:17;;;;;;;6.30;4.00;;;;;;;12.48;59.86;100731.06;2180266;41;20062;-79
2021/05/30 05:54:50;;;;;;;6.68;3.85;;;;;;;12.55;59.63;100727.81;2177471;40;20056;-79
2021/05/30 05:56:22;;;;;;;6.88;4.38;;;;;;;12.62;59.68;100729.78;2178365;41;20030;-78
2021/05/30 05:57:54;;;;;;;6.88;4.20;;;;;;;12.69;59.39;100724.72;2179765;41;20328;-78
2021/05/30 05:59:35;;;;;;;8.02;4.90;;;;;;;12.75;59.18;100725.97;2177597;40;20025;-77
2021/05/30 06:01:14;;;;;;;8.25;4.72;;;;;;;12.81;59.29;100728.09;2183208;40;20092;-78
2021/05/30 06:02:46;;;;;;;5.78;3.63;;;;;;;12.85;59.31;100724.09;2181877;40;20044;-78
2021/05/30 06:04:18;;;;;;;5.78;3.40;;;;;;;12.91;58.95;100718.19;2186009;40;20409;-79
2021/05/30 06:05:50;;;;;;;6.47;4.35;;;;;;;12.97;58.86;100721.28;2171374;40;20125;-79
2021/05/30 06:07:22;;;;;;;7.22;4.00;;;;;;;12.99;58.88;100719.28;2184629;40;20039;-79
2021/05/30 06:08:54;;;;;;;6.35;4.00;;;;;;;13.04;58.78;100723.25;2180688;40;20068;-78
2021/05/30 06:10:26;;;;;;;7.78;4.18;;;;;;;13.10;58.52;100719.13;2188168;40;20043;-78
2021/05/30 06:11:58;;;;;;;6.47;3.67;;;;;;;13.21;58.38;100716.28;2172459;40;20047;-79
2021/05/30 06:13:30;;;;;;;6.18;3.85;;;;;;;13.29;58.11;100722.75;2177413;40;20517;-78
2021/05/30 06:15:01;;;;;;;7.18;3.63;;;;;;;13.34;57.98;100720.47;2178739;40;20051;-76
2021/05/30 06:16:33;;;;;;;7.00;3.50;;;;;;;13.41;57.80;100719.78;2177332;40;20039;-78
2021/05/30 06:18:08;;;;;;;7.03;3.50;;;;;;;13.45;57.74;100728.38;2180089;40;20087;-78
2021/05/30 06:19:39;;;;;;;6.35;3.70;;;;;;;13.51;57.53;100721.59;2176611;40;20374;-78
2021/05/30 06:21:10;;;;;;;9.05;4.25;;;;;;;13.56;57.38;100719.28;2179174;41;20040;-78
2021/05/30 06:22:41;;;;;;;6.70;3.22;;;;;;;13.59;57.36;100718.16;2178409;40;20107;-78
2021/05/30 06:24:12;;;;;;;5.75;3.35;;;;;;;13.66;57.10;100719.25;2184286;40;20060;-79
2021/05/30 06:25:44;;;;;;;8.02;4.85;;;;;;;13.70;57.04;100718.81;2176151;40;20419;-78
2021/05/30 06:27:26;;;;;;;7.57;4.28;;;;;;;13.67;57.22;100723.63;2179186;41;20119;-79
2021/05/30 06:29:15;;;;;;;6.05;4.00;;;;;;;13.67;56.89;100718.25;2172758;40;20040;-78
2021/05/30 06:30:47;;;;;;;10.98;4.63;;;;;;;13.72;56.91;100716.81;2172955;40;20128;-77
2021/05/30 06:32:19;;;;;;;7.45;4.32;;;;;;;13.79;56.47;100726.97;2185457;40;20062;-78
2021/05/30 06:33:50;;;;;;;6.68;4.57;;;;;;;13.80;56.62;100718.75;2171106;40;20397;-78
2021/05/30 06:35:22;;;;;;;5.82;3.78;;;;;;;13.92;56.58;100729.31;2180498;40;20055;-78
2021/05/30 06:36:54;;;;;;;5.50;3.40;;;;;;;14.06;56.30;100731.50;2183411;40;20083;-77
2021/05/30 06:38:25;;;;;;;6.18;3.78;;;;;;;14.19;55.92;100726.59;2181871;40;20063;-77
2021/05/30 06:39:57;;;;;;;8.27;4.50;;;;;;;14.31;55.40;100731.75;2180489;40;20036;-77
2021/05/30 06:41:28;;;;;;;7.80;4.78;;;;;;;14.43;55.17;100725.16;2183655;40;20032;-76
2021/05/30 06:43:00;;;;;;;6.78;4.18;;;;;;;14.47;55.07;100726.53;2180873;40;20059;-77
2021/05/30 06:44:31;;;;;;;6.20;4.60;;;;;;;14.46;55.10;100735.59;2183922;40;20048;-77
2021/05/30 06:46:02;;;;;;;7.97;4.93;;;;;;;14.44;54.88;100726.00;2175175;40;20069;-80
2021/05/30 06:47:34;;;;;;;8.45;4.82;;;;;;;14.49;54.93;100732.59;2177307;41;20033;-77
2021/05/30 06:49:05;;;;;;;6.70;4.57;;;;;;;14.55;54.53;100741.91;2181891;40;20063;-78
2021/05/30 06:50:37;;;;;;;6.25;3.95;;;;;;;14.62;54.42;100736.75;2183654;40;20305;-77
2021/05/30 06:52:08;;;;;;;6.60;3.45;;;;;;;14.80;54.27;100737.63;2181735;40;20463;-80
2021/05/30 06:53:39;;;;;;;9.48;4.20;;;;;;;14.98;53.29;100728.66;2182605;40;20067;-77
2021/05/30 06:55:12;;;;;;;5.75;3.75;;;;;;;15.06;53.17;100726.03;2182457;40;20039;-76
2021/05/30 06:56:45;;;;;;;6.40;4.35;;;;;;;15.19;52.72;100730.16;2182710;40;21395;-79
2021/05/30 06:58:17;;;;;;;6.63;4.57;;;;;;;15.18;53.22;100736.53;2182501;40;20062;-77
2021/05/30 06:59:48;;;;;;;6.57;3.88;;;;;;;15.15;53.82;100728.78;2184367;40;20031;-78
2021/05/30 07:01:20;;;;;;;7.95;4.88;;;;;;;15.27;53.46;100735.59;2177624;40;20552;-79
2021/05/30 07:02:51;;;;;;;7.35;4.60;;;;;;;15.37;53.11;100732.78;2183768;40;20032;-79
2021/05/30 07:04:26;;;;;;;6.90;4.22;;;;;;;15.51;52.90;100725.94;2183253;40;20078;-79
2021/05/30 07:05:57;;;;;;;6.57;4.32;;;;;;;15.63;52.34;100731.91;2186029;40;20036;-79
2021/05/30 07:07:28;;;;;;;7.78;4.38;;;;;;;15.66;52.02;100729.75;2181163;40;20147;-77
2021/05/30 07:09:00;;;;;;;7.60;4.28;;;;;;;15.56;52.37;100727.16;2181919;40;20036;-80
2021/05/30 07:10:31;;;;;;;6.25;3.88;;;;;;;15.57;52.47;100733.41;2181834;40;20051;-80
2021/05/30 07:12:05;;;;;;;6.40;4.25;;;;;;;15.72;52.13;100726.38;2180783;40;20060;-79
2021/05/30 07:13:37;;;;;;;7.50;4.78;;;;;;;15.68;52.58;100726.88;2183510;40;20784;-79
2021/05/30 07:15:10;;;;;;;10.98;4.60;;;;;;;15.70;52.41;100730.25;2180454;41;20040;-79
2021/05/30 07:16:41;;;;;;;7.15;4.50;;;;;;;15.69;52.35;100725.88;2183715;40;20046;-79
2021/05/30 07:18:13;;;;;;;6.88;4.68;;;;;;;15.72;52.31;100731.78;2181292;40;20046;-78
2021/05/30 07:19:47;;;;;;;9.30;4.28;;;;;;;15.66;52.28;100721.66;2185008;40;20047;-78
2021/05/30 07:21:18;;;;;;;6.82;4.20;;;;;;;15.65;52.75;100724.50;2180632;40;20048;-80
2021/05/30 07:22:49;;;;;;;9.90;4.32;;;;;;;15.78;52.77;100729.44;2180644;40;20047;-78
2021/05/30 07:24:21;;;;;;;7.47;4.30;;;;;;;15.99;52.12;100720.97;2186697;40;20062;-79
2021/05/30 07:25:53;;;;;;;7.40;4.47;;;;;;;16.10;51.36;100717.09;2184003;40;20079;-78
2021/05/30 07:27:24;;;;;;;6.40;4.07;;;;;;;16.05;51.48;100717.59;2187039;40;20035;-79
2021/05/30 07:28:56;;;;;;;7.15;4.50;;;;;;;16.13;50.31;100717.63;2184571;40;20142;-78
2021/05/30 07:30:27;;;;;;;6.30;4.28;;;;;;;16.15;50.02;100717.47;2184558;40;20063;-78
2021/05/30 07:31:59;;;;;;;7.68;4.22;;;;;;;16.18;49.76;100720.69;2183446;40;20032;-78
2021/05/30 07:33:30;;;;;;;8.85;4.40;;;;;;;16.28;49.44;100715.13;2184315;40;20073;-77
2021/05/30 07:35:03;;;;;;;7.18;4.43;;;;;;;16.33;49.08;100714.63;2184212;40;20058;-80
2021/05/30 07:36:34;;;;;;;7.22;4.57;;;;;;;16.35;49.07;100723.41;2185688;40;20044;-79
2021/05/30 07:38:06;;;;;;;6.63;4.15;;;;;;;16.49;48.76;100728.13;2186022;40;20044;-79
2021/05/30 07:39:37;;;;;;;5.82;3.92;;;;;;;16.59;48.79;100725.28;2185548;40;20043;-80